Terminal Aerodrome Forecast
Issued by NWS

Home | Current Version | Previous Version | Text Only | Print | Product List | Glossary On
Versions: 1 2 3 4 5 6 7 8 9 10 11 12 13 14 15 16 17 18 19 20 21 22 23
000
FTUS42 KFFC 210536
TAFRYY
TAF
KRYY 210536Z 2106/2206 08006KT 5SM BR OVC012
     FM210800 05004KT 4SM BR OVC008
     FM211000 06004KT 2SM BR OVC005
     FM211400 07005KT 4SM BR BKN007 OVC015
     FM211800 08007KT P6SM OVC015
     FM220400 09005KT 6SM BR OVC008
      AMD NOT SKED 2106/2112=

USA.gov is the U.S. government's official web portal to all federal, state and local government web resources and services.